CheckWX is a tool to help pilots better visualize weather data.  It is not intended as a substitute for an official pre-flight weather briefing.

20:41:46 UTC

KTME METAR
Houston Executive Airport
Houston, Texas, USA
Current

27 mins ago

KTME 292015Z AUTO 34011KT 10SM OVC022 11/06 A3006 RMK AO2
Observed
Jan-29 @ 20:15 UTC
Wind
  • 340° at 11 KTS
Visibility
10 SM
Flight Rules
MVFR
Cloud Levels
  • Overcast at 2,200' AGL
Temperature
11°C / 52°F
Dewpoint
C / 43°F
Humidity
72%
Altimeter
30.06" Hg
Pressure
1017.92 hPa
Previous

47 mins ago

KTME 291955Z AUTO 34012KT 10SM OVC022 11/06 A3005 RMK AO2
Observed
Jan-29 @ 19:55 UTC
Wind
  • 340° at 12 KTS
Visibility
10 SM
Flight Rules
MVFR
Cloud Levels
  • Overcast at 2,200' AGL
Temperature
11°C / 52°F
Dewpoint
C / 43°F
Humidity
72%
Altimeter
30.05" Hg
Pressure
1017.62 hPa
Previous

1 hour ago

KTME 291935Z AUTO 34011G19KT 10SM OVC022 11/06 A3005 RMK AO2
Observed
Jan-29 @ 19:35 UTC
Wind
  • 340° at 11 KTS
  • Gusting to 19 KTS
Visibility
10 SM
Flight Rules
MVFR
Cloud Levels
  • Overcast at 2,200' AGL
Temperature
11°C / 52°F
Dewpoint
C / 43°F
Humidity
72%
Altimeter
30.05" Hg
Pressure
1017.62 hPa